Flight Track Log - Related Links

Times and Time Zones

All times are in EDT time to prevent confusion due to time zone crossing. See the CNS22 flight status page for this flight to view local times or setup timezone preferences in your user account.

Time Position Orientation Groundspeed Altitude Reporting Facility
EDT Latitude Longitude Course Direction KTS MPH feet Rate Location/Type
Sun 06:02:26 AM 27.9167 -82.4500 119° Southeast 103 119 300  Level Tampa TRACON
Sun 06:03:32 AM 27.9000 -82.4167 119° Southeast 137 158 1,800 1,543 Climbing Tampa TRACON
Sun 06:05:21 AM 27.8397 -82.3817 153° Southeast 161 185 4,800 1,669 Climbing Miami Center
Sun 06:06:21 AM 27.7964 -82.3725 169° South 161 185 6,500 1,600 Climbing Miami Center
Sun 06:07:21 AM 27.7467 -82.3583 166° South 166 191 8,000 1,500 Climbing Miami Center
Sun 06:08:21 AM 27.6972 -82.3442 166° South 178 205 9,500 1,450 Climbing Miami Center
Sun 06:09:21 AM 27.6417 -82.3253 163° South 188 216 10,900 1,450 Climbing Miami Center
Sun 06:10:21 AM 27.5881 -82.3086 165° South 200 230 12,400 1,450 Climbing Miami Center
Sun 06:11:21 AM 27.5417 -82.2619 138° Southeast 205 236 13,800 1,450 Climbing Miami Center
Sun 06:12:21 AM 27.5128 -82.2019 118° Southeast 222 255 15,300 1,500 Climbing Miami Center
Sun 06:13:21 AM 27.4856 -82.1469 119° Southeast 211 243 16,800 1,200 Climbing Miami Center
Sun 06:14:21 AM 27.4542 -82.0917 123° Southeast 211 243 17,700 950 Climbing Miami Center
Sun 06:15:21 AM 27.4231 -82.0272 119° Southeast 223 257 18,700 900 Climbing Miami Center
Sun 06:16:21 AM 27.3917 -81.9697 122° Southeast 228 262 19,500 850 Climbing Miami Center
Sun 06:17:21 AM 27.3583 -81.9072 121° Southeast 238 274 20,400 750 Climbing Miami Center
Sun 06:18:21 AM 27.3192 -81.8333 121° Southeast 238 274 21,000 300 Climbing Miami Center
Sun 06:19:21 AM 27.2819 -81.7639 121° Southeast 256 295 21,000  Level Miami Center
Sun 06:20:21 AM 27.2408 -81.6875 121° Southeast 271 312 21,000  Level Miami Center
Sun 06:21:21 AM 27.2056 -81.6183 120° Southeast 284 327 21,000  Level Miami Center
Sun 06:22:21 AM 27.1581 -81.5347 123° Southeast 284 327 21,000  Level Miami Center
Sun 06:23:21 AM 27.1167 -81.4583 121° Southeast 284 327 21,000  Level Miami Center
Sun 06:24:21 AM 27.0775 -81.3797 119° Southeast 284 327 21,000  Level Miami Center
Sun 06:25:21 AM 27.0339 -81.3036 123° Southeast 284 327 21,000  Level Miami Center
Sun 06:26:21 AM 26.9922 -81.2272 121° Southeast 284 327 21,000  Level Miami Center
Sun 06:27:21 AM 26.9508 -81.1511 121° Southeast 284 327 21,000  Level Miami Center
Sun 06:28:21 AM 26.9092 -81.0753 122° Southeast 284 327 21,000  Level Miami Center
Sun 06:29:21 AM 26.8586 -81.0197 136° Southeast 284 327 21,000  Level Miami Center
Sun 06:30:21 AM 26.8039 -80.9597 136° Southeast 279 321 21,000  Level Miami Center
Sun 06:31:21 AM 26.7517 -80.8811 127° Southeast 287 330 21,000  Level Miami Center
Sun 06:32:21 AM 26.7100 -80.8053 122° Southeast 287 330 21,000  Level Miami Center
Sun 06:33:21 AM 26.6703 -80.7297 120° Southeast 287 330 21,000  Level Miami Center
Sun 06:34:21 AM 26.6325 -80.6611 122° Southeast 282 325 21,000  Level Miami Center
Sun 06:35:21 AM 26.5906 -80.5783 120° Southeast 282 325 21,000  Level Miami Center
Sun 06:36:21 AM 26.5547 -80.5097 120° Southeast 282 325 21,000  Level Miami Center
Sun 06:37:21 AM 26.5089 -80.4250 121° Southeast 282 325 21,000  Level Miami Center
Sun 06:38:21 AM 26.4728 -80.3589 121° Southeast 287 330 21,000  Level Miami Center
Sun 06:39:21 AM 26.4311 -80.2764 119° Southeast 282 325 21,000  Level Miami Center
Sun 06:40:21 AM 26.3950 -80.2058 120° Southeast 282 325 21,000  Level Miami Center
Sun 06:41:21 AM 26.3569 -80.1328 120° Southeast 282 325 21,000  Level Miami Center
Sun 06:42:21 AM 26.3131 -80.0483 120° Southeast 282 325 21,000  Level Miami Center
Sun 06:43:21 AM 26.2747 -79.9822 123° Southeast 282 325 21,000  Level Miami Center
Sun 06:44:21 AM 26.2386 -79.9072 118° Southeast 282 325 21,000  Level Miami Center
Sun 06:45:21 AM 26.1983 -79.8344 122° Southeast 277 319 21,000  Level Miami Center
Sun 06:46:21 AM 26.1603 -79.7594 119° Southeast 277 319 21,000  Level Miami Center
Sun 06:47:21 AM 26.1197 -79.6867 122° Southeast 277 319 21,000  Level Miami Center
Sun 06:48:21 AM 26.0817 -79.6142 120° Southeast 277 319 21,000  Level Miami Center
Sun 06:49:21 AM 26.0411 -79.5392 121° Southeast 277 319 21,000  Level Miami Center
Sun 06:50:21 AM 25.9925 -79.4572 123° Southeast 277 319 21,000  Level Miami Center
Sun 06:51:21 AM 25.9542 -79.3847 120° Southeast 277 319 21,000  Level Miami Center
Sun 06:52:21 AM 25.9175 -79.3169 121° Southeast 283 326 21,000  Level Miami Center
Sun 06:53:21 AM 25.8811 -79.2422 118° Southeast 278 320 21,000  Level Miami Center
Sun 06:54:21 AM 25.8406 -79.1675 121° Southeast 278 320 21,000  Level Miami Center
Sun 06:55:21 AM 25.8019 -79.0931 120° Southeast 278 320 21,000  Level Miami Center
Sun 06:56:21 AM 25.7636 -79.0186 120° Southeast 278 320 21,000  Level Miami Center
Sun 06:57:21 AM 25.7186 -78.9486 125° Southeast 278 320 21,000 -150 Level Miami Center
Sun 06:58:21 AM 25.6797 -78.8764 121° Southeast 278 320 20,700 -700 Descending Miami Center
Sun 06:59:21 AM 25.6392 -78.7997 120° Southeast 283 326 19,600 -1,100 Descending Miami Center
Sun 07:00:21 AM 25.5919 -78.7206 123° Southeast 290 334 18,500 -1,100 Descending Miami Center
Sun 07:01:21 AM 25.5492 -78.6417 121° Southeast 296 341 17,400 -1,100 Descending Miami Center
Sun 07:02:21 AM 25.5083 -78.5628 120° Southeast 296 341 16,300 -1,100 Descending Miami Center
Sun 07:03:21 AM 25.4631 -78.4861 123° Southeast 296 341 15,200 -1,100 Descending Miami Center
Sun 07:04:21 AM 25.4222 -78.4072 120° Southeast 296 341 14,100 -1,100 Descending Miami Center
Sun 07:05:21 AM 25.3769 -78.3308 123° Southeast 296 341 13,000 -1,100 Descending Miami Center
Sun 07:06:21 AM 25.3358 -78.2567 122° Southeast 296 341 11,900 -1,050 Descending Miami Center
Sun 07:07:21 AM 25.2989 -78.1828 119° Southeast 291 335 10,900 -1,000 Descending Miami Center
Sun 07:09:00 AM 25.2537 -78.0663 113° Southeast  Level FlightAware Approximate
Sun 07:16:00 AM 25.0751 -77.5710 114° Southeast  Level FlightAware Approximate
Sun 07:17:00 AM 25.0499 -77.4996 110° East  Level FlightAware Approximate
Sun 07:18:00 AM 25.0390 -77.4662 110° East  Level Estimated
Sun 07:19:00 AM 25.0390 -77.4662 110° East  Level Estimated
Sun 07:20:00 AM 25.0390 -77.4662 110° East  Level Estimated
Sun 07:21:00 AM 25.0390 -77.4662 110° East  Level Estimated
Sun 07:22:00 AM 25.0390 -77.4662 110° East  Level Estimated
Sun 07:23:00 AM 25.0390 -77.4662 110° East  Level Estimated
Sun 07:24:00 AM 25.0390 -77.4662 110° East  Level Estimated
Sun 07:25:00 AM 25.0390 -77.4662 110° East  Level Estimated
Sun 07:26:00 AM 25.0390 -77.4662 110° East  Level Estimated
Sun 07:27:00 AM 25.0390 -77.4662 110° East  Level Estimated
Sun 07:28:00 AM 25.0390 -77.4662 110° East  Level Estimated
Sun 07:29:00 AM 25.0390 -77.4662 110° East  Level Estimated
Sun 07:30:00 AM 25.0390 -77.4662 110° East  Level Estimated
Sun 07:31:00 AM 25.0390 -77.4662 110° East  Level Estimated

Login

Don't have an account? Register now (free) for customized features, flight alerts, and more!